createdAt,value
2018-12-04T12:56:14.159Z,45.8
2018-12-04T12:59:36.028Z,46
2018-12-04T13:02:57.977Z,46
2018-12-04T13:06:19.773Z,42.9
2018-12-04T13:09:41.640Z,43.6
2018-12-04T13:13:03.521Z,43.9
2018-12-04T13:16:25.433Z,42.7
2018-12-04T13:19:47.322Z,42.3
2018-12-04T13:23:09.284Z,42.2
2018-12-04T13:26:31.179Z,42.2
2018-12-04T13:29:53.077Z,42.3
2018-12-04T13:33:14.905Z,42.8
2018-12-04T13:36:36.699Z,42.9
2018-12-04T13:39:58.542Z,42.7
2018-12-04T13:43:20.476Z,42.9
2018-12-04T13:46:43.947Z,43.3
2018-12-04T13:50:04.205Z,43.2
2018-12-04T13:53:26.013Z,43.2
2018-12-04T13:56:47.872Z,43.3
2018-12-04T14:00:09.852Z,43.3
2018-12-04T14:03:31.679Z,43.4
2018-12-04T14:06:53.555Z,43.5
2018-12-04T14:10:15.336Z,43.7
2018-12-04T14:13:37.232Z,43.8
2018-12-04T14:16:59.120Z,44
2018-12-04T14:20:20.833Z,44.1
2018-12-04T14:23:42.743Z,44.3
2018-12-04T14:27:04.521Z,44.4
2018-12-04T14:30:26.618Z,44.6
2018-12-04T14:53:05.578Z,45.1
2018-12-04T14:56:27.460Z,45.6
2018-12-04T14:59:49.340Z,45.8
2018-12-04T15:03:11.416Z,45.9
2018-12-04T15:06:35.750Z,46
2018-12-04T15:09:55.317Z,46.2
2018-12-04T15:13:17.199Z,46.2
2018-12-04T15:16:39.174Z,46.2
2018-12-04T15:20:01.176Z,46.6
2018-12-04T15:23:23.135Z,46.3
2018-12-04T15:26:45.086Z,46.5
2018-12-04T15:30:07.042Z,46.5
2018-12-04T15:33:29.029Z,46.6
2018-12-04T15:36:51.082Z,46.8
2018-12-04T15:40:13.075Z,46.8
2018-12-04T15:43:35.024Z,46.8
2018-12-04T15:46:56.974Z,46.8
2018-12-04T15:50:19.021Z,46.7
2018-12-04T15:53:40.967Z,46.8
2018-12-04T15:57:02.981Z,46.9
2018-12-04T16:00:25.041Z,46.9
2018-12-04T16:03:46.973Z,46.9
2018-12-04T16:07:08.974Z,46.9
2018-12-04T16:10:30.936Z,46.9
2018-12-04T16:13:52.869Z,46.7
2018-12-04T16:17:14.853Z,46.7
2018-12-04T16:20:39.996Z,46.7
2018-12-04T16:23:58.977Z,46.7
2018-12-04T16:27:20.940Z,47
2018-12-04T16:30:42.881Z,47.1
2018-12-04T16:34:04.883Z,47
2018-12-04T16:37:26.947Z,46.9
2018-12-04T16:40:49.007Z,46.9
2018-12-04T16:44:10.940Z,46.8
2018-12-04T16:47:33.033Z,46.8
2018-12-04T16:50:54.959Z,46.8
2018-12-04T16:54:16.975Z,46.7
2018-12-04T16:57:39.066Z,46.5
2018-12-04T17:01:00.979Z,46.6
2018-12-04T17:04:23.070Z,46.5
2018-12-04T17:07:44.997Z,46.5
2018-12-04T17:11:07.384Z,46.5
2018-12-04T17:14:29.055Z,46.4
2018-12-04T17:17:50.976Z,46.4
2018-12-04T17:21:13.035Z,46.4
2018-12-04T17:24:34.979Z,46.3
2018-12-04T17:27:57.005Z,46.2
2018-12-04T17:31:20.983Z,46.2
2018-12-04T17:34:41.070Z,46
2018-12-04T17:38:03.073Z,45.9
2018-12-04T17:41:24.984Z,45.9
2018-12-04T17:44:47.050Z,45.9
2018-12-04T17:48:09.032Z,45.9
2018-12-04T17:51:30.949Z,45.9
2018-12-04T17:54:52.944Z,45.9
2018-12-04T17:58:14.939Z,45.9
2018-12-04T18:01:36.987Z,46
2018-12-04T18:04:58.901Z,46
2018-12-04T18:08:20.895Z,46
2018-12-04T18:11:42.870Z,46.1
2018-12-04T18:15:04.876Z,45.9
2018-12-04T18:18:26.987Z,45.9
2018-12-04T18:21:48.900Z,45.9
2018-12-04T18:25:10.991Z,47.6
2018-12-04T18:28:33.013Z,47.9
2018-12-04T18:31:54.957Z,47.8
2018-12-04T18:35:17.034Z,48.3
2018-12-04T18:38:38.958Z,48.3
2018-12-04T18:42:01.035Z,48.2
2018-12-04T18:45:22.977Z,48.6
2018-12-04T18:48:45.072Z,48.7
2018-12-04T18:52:06.990Z,48.6
2018-12-04T18:55:29.016Z,48.8
2018-12-04T18:58:51.076Z,48.9
2018-12-04T19:02:13.060Z,48.6
2018-12-04T19:05:34.979Z,48.6
2018-12-04T19:08:57.042Z,48.6
2018-12-04T19:12:18.950Z,48.4
2018-12-04T19:15:40.942Z,48.4
2018-12-04T19:19:02.991Z,48.2
2018-12-04T19:22:24.976Z,48.1
2018-12-04T19:25:46.988Z,48.1
2018-12-04T19:29:08.926Z,47.9
2018-12-04T19:32:30.953Z,47.9
2018-12-04T19:35:53.037Z,47.7
2018-12-04T19:39:15.051Z,47.7
2018-12-04T19:42:37.072Z,47.6
2018-12-04T19:46:01.509Z,47.4
2018-12-04T19:49:21.032Z,47.4
2018-12-04T19:52:43.099Z,47.3
2018-12-04T19:56:05.112Z,47.3
2018-12-04T19:59:27.046Z,47.1
2018-12-04T20:02:49.064Z,47
2018-12-04T20:06:11.132Z,47
2018-12-04T20:09:33.062Z,46.8
2018-12-04T20:12:55.153Z,46.8
2018-12-04T20:16:17.116Z,46.8
2018-12-04T20:19:39.205Z,46.7
2018-12-04T20:23:01.151Z,46.8
2018-12-04T20:26:23.221Z,46.7
2018-12-04T20:29:45.160Z,46.7
2018-12-04T20:33:07.184Z,46.7
2018-12-04T20:36:29.208Z,46.7
2018-12-04T20:39:51.210Z,46.7
2018-12-04T20:43:13.211Z,46.6
2018-12-04T20:46:35.267Z,46.6
2018-12-04T20:49:57.345Z,46.6
2018-12-04T20:53:19.269Z,46.5
2018-12-04T20:56:41.363Z,46.6
2018-12-04T21:00:03.365Z,46.5
2018-12-04T21:03:25.376Z,46.4
2018-12-04T21:06:47.402Z,46.4
2018-12-04T21:10:09.413Z,46.4
2018-12-04T21:13:31.479Z,46.3
2018-12-04T21:16:53.382Z,46.2
2018-12-04T21:20:15.496Z,46.2
2018-12-04T21:23:37.470Z,46.2
2018-12-04T21:26:59.581Z,46.1
2018-12-04T21:30:21.500Z,46.1
2018-12-04T21:33:43.553Z,46
2018-12-04T21:37:05.662Z,46
2018-12-04T21:40:27.613Z,46
2018-12-04T21:43:49.658Z,45.9
2018-12-04T21:47:11.724Z,45.9
2018-12-04T21:50:33.797Z,45.9
2018-12-04T21:53:55.913Z,45.8
2018-12-04T21:57:17.873Z,45.9
2018-12-04T22:00:39.939Z,45.9
2018-12-04T22:04:01.997Z,45.9
2018-12-04T22:07:24.127Z,45.8
2018-12-04T22:10:46.161Z,45.7
2018-12-04T22:14:08.229Z,45.7
2018-12-04T22:17:30.154Z,45.7
2018-12-04T22:20:52.317Z,45.7
2018-12-04T22:24:14.265Z,45.7
2018-12-04T22:27:36.284Z,45.7
2018-12-04T22:30:58.412Z,45.6
2018-12-04T22:34:20.386Z,45.5
2018-12-04T22:37:42.424Z,46
2018-12-04T22:41:04.542Z,46.1
2018-12-04T22:44:26.507Z,45.8
2018-12-04T22:47:48.633Z,45.9
2018-12-04T22:51:10.703Z,45.8
2018-12-04T22:54:32.693Z,45.9
2018-12-04T22:57:54.720Z,45.9
2018-12-04T23:01:16.708Z,45.8
2018-12-04T23:04:38.719Z,45.8
2018-12-04T23:08:00.769Z,45.9
2018-12-04T23:11:22.788Z,45.9
2018-12-04T23:14:44.893Z,45.9
2018-12-04T23:18:06.858Z,45.9
2018-12-04T23:21:28.955Z,45.9
2018-12-04T23:24:50.973Z,45.9
2018-12-04T23:28:13.024Z,45.8
2018-12-04T23:31:35.055Z,45.8
2018-12-04T23:34:57.015Z,45.9
2018-12-04T23:38:19.010Z,45.8
2018-12-04T23:41:41.040Z,45.8
2018-12-04T23:45:03.051Z,45.8
2018-12-04T23:48:25.052Z,45.8
2018-12-04T23:51:47.130Z,45.7
2018-12-04T23:55:09.102Z,45.7
2018-12-04T23:58:31.139Z,45.7
